Time;durP1;ratioP1;P1;durP2;ratioP2;P2;SDS_P1;SDS_P2;PMS_P1;PMS_P2;Temp;Humidity;BMP_temperature;BMP_pressure;BME280_temperature;BME280_humidity;BME280_pressure;Samples;Min_cycle;Max_cycle;Signal;HPM_P1;HPM_P2
2023/05/25 00:01:02;;;;;;;3.45;3.15;;;;;;;16.40;83.81;98054.03;5055008;28;20551;-62
2023/05/25 00:03:28;;;;;;;3.30;3.00;;;;;;;16.35;84.48;98041.41;5054696;28;20196;-62
2023/05/25 00:05:53;;;;;;;3.30;2.60;;;;;;;16.68;83.60;98100.81;5054754;28;20181;-62
2023/05/25 00:08:19;;;;;;;2.60;2.40;;;;;;;16.31;82.65;98036.59;5054656;28;20643;-62
2023/05/25 00:10:44;;;;;;;3.75;2.60;;;;;;;16.36;82.62;98042.22;5054628;28;20588;-62
2023/05/25 00:13:09;;;;;;;2.88;2.67;;;;;;;16.99;80.56;98124.75;5054589;28;20308;-62
2023/05/25 00:15:35;;;;;;;3.17;2.88;;;;;;;17.05;80.41;98124.97;5054547;28;20173;-62
2023/05/25 00:18:00;;;;;;;3.58;2.75;;;;;;;16.62;80.79;98038.72;5054546;28;20181;-62
2023/05/25 00:20:26;;;;;;;3.20;2.85;;;;;;;16.58;81.03;98031.34;5054482;28;20185;-62
2023/05/25 00:22:55;;;;;;;3.75;2.90;;;;;;;16.75;82.70;98085.34;5054359;28;20719;-62
2023/05/25 00:25:20;;;;;;;2.97;2.78;;;;;;;16.60;83.10;98068.56;5054425;28;20181;-62
2023/05/25 00:27:45;;;;;;;5.30;2.97;;;;;;;16.63;83.78;98086.56;5054355;28;20177;-62
2023/05/25 00:30:11;;;;;;;3.20;2.92;;;;;;;16.74;83.96;98122.91;5054318;28;20170;-62
2023/05/25 00:32:37;;;;;;;4.75;2.63;;;;;;;16.67;83.39;98122.69;5054273;28;20170;-62
2023/05/25 00:35:02;;;;;;;2.97;2.78;;;;;;;16.51;83.05;98083.34;5054177;28;20177;-62
2023/05/25 00:37:28;;;;;;;5.03;2.88;;;;;;;16.22;84.05;98035.72;5054207;28;20166;-62
2023/05/25 00:39:53;;;;;;;3.30;2.90;;;;;;;16.38;84.88;98082.06;5054150;28;20181;-62
2023/05/25 00:42:19;;;;;;;4.93;3.05;;;;;;;16.46;86.30;98113.50;5054055;28;20166;-62
2023/05/25 00:44:44;;;;;;;3.10;2.90;;;;;;;15.91;85.39;98036.25;5053929;28;20216;-62
2023/05/25 00:47:11;;;;;;;3.40;2.95;;;;;;;15.88;86.28;98037.34;5053583;28;20250;-62
2023/05/25 00:49:37;;;;;;;2.97;2.78;;;;;;;15.85;87.13;98029.00;5053941;28;20184;-62
2023/05/25 00:52:03;;;;;;;2.97;2.78;;;;;;;15.84;87.36;98037.75;5053911;28;20670;-62
2023/05/25 00:54:28;;;;;;;4.35;2.75;;;;;;;15.89;86.42;98038.16;5053813;28;20185;-62
2023/05/25 00:57:03;;;;;;;3.53;3.22;;;;;;;16.52;85.62;98118.13;5053805;28;20170;-62
2023/05/25 00:59:40;;;;;;;3.35;3.00;;;;;;;16.56;86.39;98122.09;5053731;28;20196;-62
2023/05/25 01:02:14;;;;;;;3.17;2.90;;;;;;;15.87;87.55;98045.31;5053664;28;20169;-62
2023/05/25 01:04:44;;;;;;;3.65;3.35;;;;;;;15.95;88.54;98074.94;5053639;28;20698;-62
2023/05/25 01:07:11;;;;;;;3.33;3.13;;;;;;;15.97;88.49;98066.97;5053611;28;20170;-62
2023/05/25 01:09:43;;;;;;;7.45;3.30;;;;;;;16.20;88.70;98118.59;5053003;28;20546;-62
2023/05/25 01:12:09;;;;;;;3.30;3.10;;;;;;;16.10;88.79;98099.53;5053527;28;20234;-62
2023/05/25 01:14:37;;;;;;;3.38;3.10;;;;;;;16.09;89.03;98100.53;5053438;28;20178;-62
2023/05/25 01:17:03;;;;;;;4.88;3.17;;;;;;;15.65;89.32;98020.47;5053428;28;20176;-62
2023/05/25 01:19:32;;;;;;;3.35;3.05;;;;;;;16.19;89.25;98098.69;5053330;28;20169;-62
2023/05/25 01:22:25;;;;;;;3.65;3.17;;;;;;;16.24;88.93;98098.22;5053347;28;20173;-62
2023/05/25 01:25:00;;;;;;;3.42;3.13;;;;;;;15.78;89.18;98014.88;5052983;28;20190;-62
2023/05/25 01:27:42;;;;;;;4.18;2.97;;;;;;;16.19;88.13;98061.31;5053190;28;20168;-62
2023/05/25 01:30:12;;;;;;;3.05;2.85;;;;;;;15.91;87.05;97989.28;5052941;28;20223;-62
2023/05/25 01:32:38;;;;;;;3.53;3.20;;;;;;;16.41;87.17;98073.94;5053113;28;20632;-62
2023/05/25 01:35:05;;;;;;;2.97;2.75;;;;;;;16.43;87.07;98080.66;5053331;28;20667;-62
2023/05/25 01:37:30;;;;;;;2.80;2.60;;;;;;;16.35;87.79;98090.19;5050446;28;20326;-62
2023/05/25 01:39:56;;;;;;;3.30;3.00;;;;;;;15.83;88.53;98021.31;5050633;28;20276;-62
2023/05/25 01:42:22;;;;;;;3.45;3.20;;;;;;;16.38;88.00;98097.72;5050531;28;20192;-62
2023/05/25 01:44:47;;;;;;;3.13;2.83;;;;;;;16.45;88.12;98104.03;5050308;28;20288;-62
2023/05/25 01:47:22;;;;;;;3.70;3.40;;;;;;;16.55;87.48;98120.47;5050417;28;20272;-62
2023/05/25 01:50:14;;;;;;;3.40;3.00;;;;;;;16.69;86.63;98106.88;5050445;28;20319;-62
2023/05/25 01:52:56;;;;;;;3.13;2.92;;;;;;;16.10;86.82;98031.69;5050407;28;20200;-62
2023/05/25 01:55:25;;;;;;;3.03;2.42;;;;;;;16.21;86.43;98022.84;5050367;28;20182;-62
2023/05/25 01:57:56;;;;;;;3.40;3.13;;;;;;;16.51;86.63;98091.19;5050272;28;20551;-62
2023/05/25 02:00:25;;;;;;;3.35;3.13;;;;;;;16.05;87.77;98036.56;5050051;28;20212;-62
2023/05/25 02:02:51;;;;;;;3.45;3.15;;;;;;;16.47;87.21;98089.03;5050091;28;20205;-63
2023/05/25 02:05:19;;;;;;;4.32;2.83;;;;;;;16.11;87.28;98027.28;5050138;28;20764;-62
2023/05/25 02:07:45;;;;;;;4.10;3.70;;;;;;;16.29;87.34;98059.44;5050018;28;20598;-62
2023/05/25 02:10:10;;;;;;;3.67;2.97;;;;;;;16.49;87.62;98098.34;5049995;28;20200;-62
2023/05/25 02:12:35;;;;;;;3.58;3.15;;;;;;;16.51;87.71;98098.22;5050038;28;20176;-63
2023/05/25 02:15:01;;;;;;;5.13;3.00;;;;;;;16.13;87.60;98035.78;5050368;28;20188;-63
2023/05/25 02:17:27;;;;;;;3.97;2.60;;;;;;;16.35;88.30;98087.56;5052413;28;20173;-60
2023/05/25 02:19:53;;;;;;;4.32;3.38;;;;;;;16.00;87.52;98014.47;5052380;28;20227;-60
2023/05/25 02:22:20;;;;;;;5.05;3.40;;;;;;;16.22;87.69;98059.22;5051401;28;20173;-60
2023/05/25 02:24:45;;;;;;;4.68;3.10;;;;;;;16.40;87.60;98099.25;5052114;28;20300;-60
2023/05/25 02:27:11;;;;;;;2.90;2.70;;;;;;;15.80;88.71;98031.22;5052268;28;20256;-60
2023/05/25 02:29:37;;;;;;;3.55;3.25;;;;;;;16.30;89.17;98123.75;5052204;28;20182;-60
2023/05/25 02:32:02;;;;;;;3.50;3.20;;;;;;;16.22;93.33;98121.06;5051968;28;20174;-60
2023/05/25 02:34:28;;;;;;;3.30;3.10;;;;;;;15.56;97.57;98041.38;5051871;28;20184;-60
2023/05/25 02:36:53;;;;;;;3.42;3.03;;;;;;;16.18;92.87;98117.94;5052138;28;20174;-60
2023/05/25 02:39:19;;;;;;;8.73;3.30;;;;;;;15.97;90.58;98077.41;5052090;28;20230;-60
2023/05/25 02:41:44;;;;;;;3.83;3.42;;;;;;;15.89;91.16;98079.91;5052109;28;20174;-63
2023/05/25 02:44:10;;;;;;;5.20;3.63;;;;;;;15.93;91.25;98096.91;5052008;28;20197;-60
2023/05/25 02:46:35;;;;;;;3.22;2.90;;;;;;;15.66;90.43;98044.75;5052036;28;20209;-60
2023/05/25 02:49:00;;;;;;;4.03;3.30;;;;;;;15.62;92.28;98057.25;5052089;28;20174;-61
2023/05/25 02:51:27;;;;;;;3.42;3.13;;;;;;;16.01;92.92;98128.31;5051989;28;20666;-61
2023/05/25 02:53:52;;;;;;;4.75;3.92;;;;;;;16.06;91.80;98126.09;5051991;28;20215;-61
2023/05/25 02:56:18;;;;;;;3.80;3.47;;;;;;;15.63;90.96;98058.88;5052208;28;20243;-61
2023/05/25 02:58:43;;;;;;;3.97;3.50;;;;;;;15.62;91.00;98059.06;5051932;28;20182;-61
2023/05/25 03:01:09;;;;;;;3.90;3.55;;;;;;;16.03;90.94;98127.19;5052034;28;20286;-61
2023/05/25 03:03:36;;;;;;;7.40;4.03;;;;;;;15.76;92.52;98106.34;5051442;28;20198;-61
2023/05/25 03:06:03;;;;;;;4.03;3.72;;;;;;;15.92;92.55;98134.41;5051860;28;20196;-61
2023/05/25 03:08:29;;;;;;;5.93;3.60;;;;;;;15.42;94.95;98053.09;5051832;28;20166;-61
2023/05/25 03:10:55;;;;;;;4.05;3.60;;;;;;;15.64;95.23;98075.38;5051757;28;20178;-61
2023/05/25 03:13:20;;;;;;;4.47;3.38;;;;;;;15.36;93.91;98035.44;5049264;28;20555;-61
2023/05/25 03:15:46;;;;;;;5.82;3.60;;;;;;;15.82;93.08;98120.59;5049339;28;20283;-61
2023/05/25 03:18:11;;;;;;;3.25;2.90;;;;;;;15.91;93.07;98128.38;5049314;28;20236;-61
2023/05/25 03:20:36;;;;;;;3.63;3.33;;;;;;;15.41;93.00;98040.19;5049326;28;20261;-61
2023/05/25 03:23:02;;;;;;;4.10;3.70;;;;;;;15.87;93.84;98131.41;5049138;28;20209;-61
2023/05/25 03:25:27;;;;;;;4.10;3.15;;;;;;;15.47;93.16;98053.50;5049279;28;20177;-61
2023/05/25 03:27:53;;;;;;;8.02;3.08;;;;;;;15.86;92.31;98114.13;5049192;28;20791;-61
2023/05/25 03:30:21;;;;;;;6.55;3.85;;;;;;;15.95;93.36;98126.28;5049184;28;20236;-61
2023/05/25 03:32:46;;;;;;;6.28;3.63;;;;;;;15.84;93.74;98101.22;5049599;28;20204;-61
2023/05/25 03:35:12;;;;;;;3.17;2.95;;;;;;;16.15;93.30;98133.88;5052879;28;20683;-61
2023/05/25 03:37:37;;;;;;;4.53;3.50;;;;;;;16.19;92.47;98123.94;5052863;28;20272;-61
2023/05/25 03:40:03;;;;;;;4.13;3.35;;;;;;;16.29;92.17;98135.16;5052795;28;20390;-61
2023/05/25 03:42:29;;;;;;;4.68;3.00;;;;;;;16.35;91.77;98122.34;5052787;28;20636;-61
2023/05/25 03:44:54;;;;;;;5.38;3.70;;;;;;;16.41;94.91;98150.53;5054241;28;20256;-61
2023/05/25 03:47:20;;;;;;;4.68;3.65;;;;;;;15.96;94.71;98065.28;5055091;28;20190;-61
2023/05/25 03:49:45;;;;;;;3.70;3.40;;;;;;;16.16;92.51;98092.94;5054997;28;20208;-61
2023/05/25 03:52:11;;;;;;;4.82;3.35;;;;;;;16.32;92.51;98090.50;5054662;28;20658;-61
2023/05/25 03:54:36;;;;;;;4.00;3.67;;;;;;;16.74;92.02;98155.06;5054928;28;20219;-61
2023/05/25 03:57:02;;;;;;;4.97;3.75;;;;;;;16.65;91.32;98122.03;5054899;28;20181;-61
2023/05/25 03:59:28;;;;;;;4.32;3.92;;;;;;;16.79;89.33;98103.19;5054710;28;20593;-61
2023/05/25 04:01:53;;;;;;;3.63;3.35;;;;;;;17.05;87.71;98134.59;5054810;28;20173;-61
2023/05/25 04:04:19;;;;;;;3.95;3.10;;;;;;;16.92;85.98;98098.38;5054656;28;20231;-61
2023/05/25 04:06:47;;;;;;;3.35;2.90;;;;;;;16.65;86.60;98074.16;5054682;28;20177;-61
2023/05/25 04:09:13;;;;;;;3.15;2.85;;;;;;;16.53;86.43;98055.31;5054709;28;20184;-61
2023/05/25 04:11:39;;;;;;;3.70;3.40;;;;;;;16.90;87.01;98136.13;5054681;28;20165;-61
2023/05/25 04:14:04;;;;;;;6.57;3.38;;;;;;;16.23;88.17;98063.50;5054883;28;20268;-61
2023/05/25 04:16:30;;;;;;;3.38;3.17;;;;;;;16.31;88.70;98071.38;5054551;28;20169;-61
2023/05/25 04:18:55;;;;;;;5.95;3.22;;;;;;;16.75;88.22;98142.84;5054262;28;20209;-61
2023/05/25 04:21:21;;;;;;;3.17;2.97;;;;;;;16.68;89.34;98145.22;5054601;28;20193;-61
2023/05/25 04:23:46;;;;;;;4.75;4.35;;;;;;;16.20;91.09;98083.84;5054449;28;20240;-61
2023/05/25 04:26:12;;;;;;;4.53;3.28;;;;;;;16.53;89.94;98132.84;5054054;28;20564;-61
2023/05/25 04:28:39;;;;;;;3.75;3.45;;;;;;;16.49;88.15;98108.00;5054083;28;20174;-61
2023/05/25 04:31:05;;;;;;;3.83;3.40;;;;;;;16.59;88.73;98120.00;5053896;28;20640;-61
2023/05/25 04:33:33;;;;;;;4.53;3.28;;;;;;;16.82;88.42;98149.09;5053900;28;20181;-61
2023/05/25 04:35:59;;;;;;;4.70;3.40;;;;;;;16.77;89.01;98141.72;5054061;28;20200;-61
2023/05/25 04:38:25;;;;;;;4.22;3.53;;;;;;;16.50;88.67;98102.59;5053841;28;20189;-61
2023/05/25 04:40:55;;;;;;;3.35;3.05;;;;;;;16.42;88.85;98109.53;5054083;28;20184;-61
2023/05/25 04:43:20;;;;;;;4.63;3.30;;;;;;;16.47;90.18;98083.81;5053981;28;20193;-61
2023/05/25 04:45:46;;;;;;;3.40;3.15;;;;;;;16.94;89.57;98156.56;5053004;28;20247;-61
2023/05/25 04:48:12;;;;;;;3.60;3.25;;;;;;;16.90;89.59;98157.84;5053974;28;20177;-61
2023/05/25 04:50:41;;;;;;;4.07;3.15;;;;;;;16.51;88.89;98099.00;5053904;28;20260;-61
2023/05/25 04:53:07;;;;;;;3.33;3.03;;;;;;;16.74;88.33;98108.03;5053579;28;20504;-61
2023/05/25 04:55:32;;;;;;;3.75;3.33;;;;;;;16.70;88.26;98114.56;5053837;28;20227;-61
2023/05/25 04:57:58;;;;;;;4.70;3.30;;;;;;;17.04;87.93;98154.72;5053997;28;20654;-61
2023/05/25 05:00:23;;;;;;;3.25;3.05;;;;;;;16.54;88.33;98088.28;5053779;28;20189;-61
2023/05/25 05:02:50;;;;;;;4.97;3.58;;;;;;;16.53;88.21;98080.59;5053559;28;20178;-62
2023/05/25 05:05:16;;;;;;;3.47;3.10;;;;;;;16.84;89.39;98142.75;5053586;28;20180;-62
2023/05/25 05:07:41;;;;;;;2.95;2.75;;;;;;;16.78;88.12;98111.16;5053579;28;20174;-62
2023/05/25 05:10:07;;;;;;;7.43;3.72;;;;;;;16.68;89.12;98085.13;5053508;28;20173;-62
2023/05/25 05:12:33;;;;;;;3.97;3.40;;;;;;;17.16;89.91;98150.03;5053504;28;20174;-62
2023/05/25 05:14:58;;;;;;;3.20;3.00;;;;;;;17.37;89.08;98158.38;5053086;28;20562;-62
2023/05/25 05:17:25;;;;;;;3.50;2.90;;;;;;;17.01;87.70;98075.75;5053681;28;20186;-62
2023/05/25 05:19:50;;;;;;;6.75;3.17;;;;;;;17.28;85.79;98093.91;5053265;28;20208;-62
2023/05/25 05:22:16;;;;;;;3.38;3.17;;;;;;;17.84;84.48;98159.69;5053011;28;20687;-62
2023/05/25 05:24:41;;;;;;;4.57;3.35;;;;;;;17.77;84.34;98127.25;5053234;28;20200;-62
2023/05/25 05:27:07;;;;;;;3.30;3.10;;;;;;;17.95;83.44;98130.59;5052881;28;20558;-62
2023/05/25 05:29:33;;;;;;;7.55;2.80;;;;;;;18.05;83.54;98123.44;5053135;28;20185;-62
2023/05/25 05:31:59;;;;;;;5.28;3.00;;;;;;;18.14;82.61;98132.97;5053061;28;20671;-62
2023/05/25 05:34:25;;;;;;;3.30;3.00;;;;;;;18.42;83.01;98165.81;5053036;28;20210;-62
2023/05/25 05:36:50;;;;;;;3.30;3.05;;;;;;;18.04;82.16;98093.00;5053051;28;20181;-62
2023/05/25 05:39:16;;;;;;;5.75;3.17;;;;;;;17.98;81.70;98088.38;5052644;28;20652;-62
2023/05/25 05:41:44;;;;;;;5.10;3.20;;;;;;;18.01;81.69;98086.25;5052942;28;20226;-62
2023/05/25 05:44:10;;;;;;;3.30;2.80;;;;;;;18.35;81.52;98133.38;5052876;28;20275;-62
2023/05/25 05:46:36;;;;;;;4.28;3.13;;;;;;;18.31;83.85;98132.88;5052873;28;20181;-62
2023/05/25 05:49:02;;;;;;;5.15;3.38;;;;;;;18.39;83.09;98134.69;5052852;28;20646;-62
2023/05/25 05:51:28;;;;;;;5.78;3.40;;;;;;;18.28;82.31;98095.66;5052760;28;20173;-62
2023/05/25 05:53:53;;;;;;;3.40;3.20;;;;;;;18.43;80.37;98121.09;5053030;28;20173;-62
2023/05/25 05:56:19;;;;;;;2.95;2.83;;;;;;;18.45;79.17;98113.09;5052481;28;20177;-62
2023/05/25 05:58:47;;;;;;;3.35;3.05;;;;;;;18.96;79.54;98183.63;5052800;28;20211;-62
2023/05/25 06:01:13;;;;;;;3.17;2.97;;;;;;;18.84;78.84;98145.59;5052495;28;20211;-62
2023/05/25 06:03:38;;;;;;;3.25;2.95;;;;;;;18.99;78.83;98159.66;5052739;28;20567;-62
2023/05/25 06:06:04;;;;;;;5.32;3.38;;;;;;;18.71;79.27;98116.41;5052557;28;20192;-62
2023/05/25 06:08:29;;;;;;;2.95;2.75;;;;;;;19.23;79.29;98188.59;5052745;28;20173;-62
2023/05/25 06:10:54;;;;;;;3.22;3.03;;;;;;;19.29;79.45;98182.69;5052477;28;20264;-62
2023/05/25 06:13:20;;;;;;;4.57;3.47;;;;;;;19.20;80.00;98141.66;5049888;28;20193;-62
2023/05/25 06:15:46;;;;;;;4.47;3.03;;;;;;;19.42;78.02;98160.19;5049930;28;20254;-62
2023/05/25 06:18:11;;;;;;;5.30;2.90;;;;;;;19.56;76.75;98169.19;5049974;28;20591;-62
2023/05/25 06:20:37;;;;;;;3.85;3.40;;;;;;;19.62;76.33;98189.53;5049957;28;20205;-62
2023/05/25 06:23:02;;;;;;;3.72;3.40;;;;;;;19.73;76.86;98183.91;5049807;28;20243;-62
2023/05/25 06:25:28;;;;;;;3.60;3.28;;;;;;;19.63;77.86;98152.59;5050162;28;20173;-62
2023/05/25 06:27:53;;;;;;;4.35;3.95;;;;;;;19.83;76.88;98168.81;5049801;28;20729;-62
2023/05/25 06:30:20;;;;;;;3.53;3.25;;;;;;;19.72;77.58;98133.25;5049834;28;20181;-62
2023/05/25 06:32:45;;;;;;;5.20;3.28;;;;;;;20.05;76.04;98160.19;5049755;28;20240;-62
2023/05/25 06:35:18;;;;;;;5.75;3.10;;;;;;;20.10;75.27;98163.97;5049773;28;20659;-63
2023/05/25 06:37:44;;;;;;;3.83;2.63;;;;;;;20.29;72.85;98170.63;5049676;28;20169;-62
2023/05/25 06:40:10;;;;;;;3.78;3.08;;;;;;;20.05;72.64;98142.63;5049639;28;20189;-62
2023/05/25 06:42:36;;;;;;;4.63;3.40;;;;;;;20.34;73.43;98184.09;5049725;28;20222;-62
2023/05/25 06:45:03;;;;;;;3.33;3.03;;;;;;;20.51;73.05;98207.47;5051231;28;20595;-62
2023/05/25 06:47:28;;;;;;;2.97;2.78;;;;;;;20.24;73.35;98131.75;5052287;28;20176;-62
2023/05/25 06:49:53;;;;;;;3.85;3.08;;;;;;;20.73;73.74;98206.72;5052040;28;20660;-63
2023/05/25 06:52:19;;;;;;;5.88;3.20;;;;;;;20.82;73.22;98202.22;5051978;28;20169;-63
2023/05/25 06:54:44;;;;;;;7.60;5.13;;;;;;;20.93;76.08;98196.59;5051943;28;20609;-62
2023/05/25 06:57:09;;;;;;;10.63;5.03;;;;;;;20.75;76.89;98165.28;5052011;28;20169;-62
2023/05/25 06:59:35;;;;;;;13.63;6.53;;;;;;;20.99;79.18;98190.63;5052007;28;20579;-63
2023/05/25 07:02:00;;;;;;;14.85;6.90;;;;;;;21.10;80.16;98200.75;5051918;28;20180;-62
2023/05/25 07:04:27;;;;;;;13.63;6.57;;;;;;;20.97;81.08;98172.38;5051803;28;20273;-62
2023/05/25 07:06:52;;;;;;;14.65;7.18;;;;;;;21.14;80.83;98192.31;5051788;28;20184;-62
2023/05/25 07:09:18;;;;;;;11.07;6.90;;;;;;;21.37;81.03;98222.09;5054869;28;20177;-63
2023/05/25 07:11:43;;;;;;;10.13;6.70;;;;;;;21.20;81.23;98196.06;5055795;28;20644;-63
2023/05/25 07:14:09;;;;;;;14.98;6.43;;;;;;;21.04;80.99;98151.47;5055786;28;20177;-62
2023/05/25 07:16:34;;;;;;;13.23;6.40;;;;;;;21.14;80.59;98152.84;5055687;28;20540;-62
2023/05/25 07:19:00;;;;;;;9.68;6.13;;;;;;;21.68;80.12;98217.56;5055655;28;20234;-62
2023/05/25 07:21:25;;;;;;;7.97;5.78;;;;;;;21.83;79.12;98223.69;5055615;28;20175;-62
2023/05/25 07:23:51;;;;;;;8.20;5.15;;;;;;;21.98;78.74;98229.75;5055497;28;20193;-62
2023/05/25 07:26:17;;;;;;;5.32;3.60;;;;;;;21.83;80.25;98184.16;5055521;28;20269;-63
2023/05/25 07:28:42;;;;;;;4.95;4.40;;;;;;;22.07;79.72;98214.69;5055159;28;20632;-63
2023/05/25 07:31:10;;;;;;;17.90;7.47;;;;;;;22.13;78.35;98206.03;5055429;28;20173;-62
2023/05/25 07:33:35;;;;;;;9.10;5.20;;;;;;;22.20;78.24;98204.34;5055416;28;20169;-62
2023/05/25 07:36:01;;;;;;;8.95;3.58;;;;;;;22.33;76.57;98222.97;5055057;28;20636;-62
2023/05/25 07:38:27;;;;;;;7.25;3.88;;;;;;;22.29;77.43;98205.88;5053142;28;20196;-63
2023/05/25 07:40:52;;;;;;;5.90;3.63;;;;;;;22.26;75.57;98200.97;5055281;28;20169;-63
2023/05/25 07:43:18;;;;;;;4.10;3.33;;;;;;;22.11;75.17;98185.16;5055162;28;20219;-63
2023/05/25 07:45:43;;;;;;;7.57;4.22;;;;;;;22.37;75.77;98213.69;5055443;28;20632;-62
2023/05/25 07:48:08;;;;;;;3.97;3.60;;;;;;;22.07;75.54;98154.06;5052635;28;20193;-62
2023/05/25 07:50:34;;;;;;;7.15;4.20;;;;;;;22.49;75.68;98207.78;5052630;28;20220;-62
2023/05/25 07:53:00;;;;;;;9.25;4.53;;;;;;;22.69;75.37;98224.69;5052667;28;20276;-63
2023/05/25 07:55:25;;;;;;;10.15;5.15;;;;;;;22.76;75.43;98219.47;5032601;28;20600;-63
2023/05/25 07:57:51;;;;;;;8.30;5.43;;;;;;;22.94;74.17;98228.59;5032714;28;20656;-62
2023/05/25 08:00:18;;;;;;;8.88;5.50;;;;;;;22.64;72.88;98163.75;5012466;28;20297;-62
2023/05/25 08:02:43;;;;;;;10.23;5.65;;;;;;;22.94;72.52;98210.13;5012685;28;20218;-62
2023/05/25 08:05:09;;;;;;;6.40;5.43;;;;;;;23.09;72.01;98220.63;5012744;28;20190;-63
2023/05/25 08:07:34;;;;;;;10.98;5.22;;;;;;;23.16;71.00;98227.63;5012630;28;20233;-62
2023/05/25 08:10:00;;;;;;;13.05;5.32;;;;;;;22.83;70.46;98157.03;5012639;28;20190;-62
2023/05/25 08:12:26;;;;;;;8.60;5.55;;;;;;;23.35;70.92;98236.75;5012605;28;20689;-62
2023/05/25 08:14:52;;;;;;;8.00;5.10;;;;;;;23.19;68.38;98173.66;5012565;28;20226;-62
2023/05/25 08:17:18;;;;;;;10.82;4.85;;;;;;;23.50;68.51;98219.03;5012517;28;20251;-62
2023/05/25 08:19:43;;;;;;;12.40;4.93;;;;;;;23.17;68.74;98155.38;4997665;28;20266;-62
2023/05/25 08:22:09;;;;;;;9.00;5.15;;;;;;;23.68;68.25;98218.34;4992855;28;20237;-62
2023/05/25 08:24:35;;;;;;;11.98;4.97;;;;;;;23.57;66.66;98174.97;4992672;28;20207;-62
2023/05/25 08:27:01;;;;;;;5.75;4.45;;;;;;;23.67;65.74;98178.13;4987742;28;20187;-62
2023/05/25 08:29:27;;;;;;;8.02;5.00;;;;;;;24.03;64.93;98230.63;4992649;28;20198;-62
2023/05/25 08:31:52;;;;;;;8.70;4.88;;;;;;;23.70;64.81;98149.47;5007336;28;20187;-62
2023/05/25 08:34:18;;;;;;;10.90;4.43;;;;;;;23.89;65.08;98163.88;5012219;28;20269;-62
2023/05/25 08:36:44;;;;;;;8.07;4.57;;;;;;;24.23;64.38;98213.06;5012079;28;20767;-63
2023/05/25 08:39:10;;;;;;;5.15;4.65;;;;;;;24.14;64.21;98185.16;5031702;28;20664;-62
2023/05/25 08:41:39;;;;;;;6.40;4.95;;;;;;;24.13;64.28;98165.00;5031794;28;20196;-62
2023/05/25 08:44:07;;;;;;;6.15;4.80;;;;;;;24.28;63.71;98188.69;5031707;28;20280;-62
2023/05/25 08:46:32;;;;;;;6.38;4.50;;;;;;;24.26;63.97;98186.22;5031734;28;20208;-62
2023/05/25 08:49:07;;;;;;;7.50;4.10;;;;;;;24.29;63.74;98185.00;5031699;28;20704;-62
2023/05/25 08:51:36;;;;;;;7.25;4.70;;;;;;;24.62;62.86;98215.91;5031653;28;20735;-62
2023/05/25 08:54:11;;;;;;;6.70;4.57;;;;;;;24.47;62.06;98178.19;5031585;28;20185;-62
2023/05/25 08:56:47;;;;;;;12.32;4.65;;;;;;;24.33;60.75;98138.66;5031566;28;20201;-62
2023/05/25 08:59:50;;;;;;;11.52;5.32;;;;;;;24.87;60.62;98211.75;5031435;28;20599;-62
2023/05/25 09:02:28;;;;;;;12.35;5.50;;;;;;;24.73;60.71;98188.88;4934147;29;20193;-62
2023/05/25 09:04:54;;;;;;;6.97;5.07;;;;;;;24.63;60.61;98142.66;4934044;29;20707;-62
2023/05/25 09:07:23;;;;;;;7.22;4.35;;;;;;;25.08;60.32;98200.97;4947163;28;20202;-62
2023/05/25 09:09:49;;;;;;;14.85;4.95;;;;;;;24.86;59.69;98159.00;4972525;28;20191;-62
2023/05/25 09:12:15;;;;;;;10.40;4.78;;;;;;;25.13;59.20;98201.19;4972507;28;20191;-62
2023/05/25 09:14:49;;;;;;;8.85;4.68;;;;;;;24.88;58.47;98141.91;4972717;28;20229;-62
2023/05/25 09:17:16;;;;;;;7.85;4.82;;;;;;;24.98;59.08;98150.25;4972149;28;20223;-62
2023/05/25 09:19:41;;;;;;;13.70;4.57;;;;;;;25.29;59.80;98200.84;4972268;28;20282;-62
2023/05/25 09:22:09;;;;;;;11.95;4.50;;;;;;;25.27;57.91;98197.59;4933674;29;20207;-62
2023/05/25 09:24:35;;;;;;;10.48;4.47;;;;;;;25.21;57.79;98166.59;4933676;29;20285;-62
2023/05/25 09:27:02;;;;;;;8.00;3.90;;;;;;;25.51;56.03;98202.28;4933712;29;20343;-62
2023/05/25 09:29:28;;;;;;;7.40;4.15;;;;;;;25.56;54.45;98193.72;4933664;29;20201;-62
2023/05/25 09:31:53;;;;;;;7.32;3.55;;;;;;;25.43;53.42;98165.38;4933145;29;20196;-62
2023/05/25 09:34:18;;;;;;;5.75;3.15;;;;;;;25.72;50.88;98201.25;4933592;29;20680;-62
2023/05/25 09:36:44;;;;;;;3.60;3.30;;;;;;;25.44;49.77;98140.53;4920207;29;20194;-62
2023/05/25 09:39:11;;;;;;;3.55;3.00;;;;;;;25.58;48.20;98158.03;4914569;29;20205;-62
2023/05/25 09:41:39;;;;;;;4.70;3.25;;;;;;;25.85;49.68;98196.75;4914543;29;20201;-62
2023/05/25 09:44:05;;;;;;;5.88;3.95;;;;;;;25.85;50.82;98195.94;4914433;29;20739;-62
2023/05/25 09:46:36;;;;;;;6.57;4.15;;;;;;;25.33;50.67;98141.16;4914399;29;20207;-62
2023/05/25 09:49:07;;;;;;;8.13;3.92;;;;;;;25.45;51.88;98205.75;4898813;29;20210;-62
2023/05/25 09:51:35;;;;;;;9.82;3.95;;;;;;;25.19;52.63;98173.91;4895540;29;20198;-62
2023/05/25 09:54:01;;;;;;;5.95;3.85;;;;;;;25.34;52.87;98171.91;4900799;29;20237;-62
2023/05/25 09:56:29;;;;;;;4.13;3.22;;;;;;;25.63;51.14;98194.53;4914256;29;20194;-62
2023/05/25 09:58:56;;;;;;;4.40;3.65;;;;;;;25.37;50.86;98145.00;4927271;28;20200;-62
2023/05/25 10:01:22;;;;;;;5.85;3.80;;;;;;;25.60;51.53;98182.50;4971681;28;20176;-62
2023/05/25 10:03:48;;;;;;;10.15;2.75;;;;;;;25.64;52.14;98167.81;5005807;28;20214;-62
2023/05/25 10:06:17;;;;;;;4.38;3.28;;;;;;;25.53;50.28;98133.16;5010601;28;20649;-62
2023/05/25 10:08:47;;;;;;;7.13;2.88;;;;;;;25.42;50.33;98110.75;5010540;28;20621;-62
2023/05/25 10:11:14;;;;;;;4.70;3.40;;;;;;;25.53;51.11;98107.50;5010593;28;20170;-62
2023/05/25 10:13:44;;;;;;;3.47;3.17;;;;;;;25.89;49.70;98155.53;5010478;28;20183;-62
2023/05/25 10:16:16;;;;;;;5.55;3.38;;;;;;;26.03;50.74;98154.53;5010449;28;20185;-62
2023/05/25 10:18:45;;;;;;;4.03;3.03;;;;;;;25.72;49.53;98096.03;5010416;28;20312;-62
2023/05/25 10:21:12;;;;;;;3.22;3.00;;;;;;;25.90;50.29;98093.56;5051034;28;20180;-62
2023/05/25 10:23:43;;;;;;;4.75;2.95;;;;;;;26.50;50.98;98158.63;5052468;28;20201;-62
2023/05/25 10:26:12;;;;;;;3.30;3.00;;;;;;;26.38;50.08;98121.34;5051988;28;20612;-62
2023/05/25 10:28:41;;;;;;;5.63;3.22;;;;;;;26.48;49.13;98132.28;5052290;28;20287;-62
2023/05/25 10:31:08;;;;;;;3.55;3.22;;;;;;;26.48;49.20;98131.50;5052170;28;20222;-62
2023/05/25 10:33:33;;;;;;;7.57;3.45;;;;;;;26.78;48.56;98181.19;5049690;28;20216;-62
2023/05/25 10:36:02;;;;;;;4.97;3.25;;;;;;;26.82;49.66;98179.72;5049828;28;20679;-62
2023/05/25 10:38:30;;;;;;;3.45;2.85;;;;;;;26.90;48.35;98186.63;5049778;28;20687;-62
2023/05/25 10:40:58;;;;;;;3.92;2.80;;;;;;;26.74;48.85;98176.50;5049763;28;20185;-63
2023/05/25 10:43:25;;;;;;;5.03;3.10;;;;;;;27.02;48.14;98193.72;5048799;28;20306;-62
2023/05/25 10:45:50;;;;;;;3.42;3.15;;;;;;;27.09;48.87;98186.53;5049745;28;20169;-62
2023/05/25 10:48:16;;;;;;;3.67;2.92;;;;;;;27.32;48.62;98196.59;5049716;28;20320;-62
2023/05/25 10:50:48;;;;;;;6.95;3.63;;;;;;;27.39;47.97;98171.63;5049697;28;20173;-62
2023/05/25 10:53:19;;;;;;;3.33;3.03;;;;;;;27.61;46.58;98170.22;5049634;28;20255;-63
2023/05/25 10:55:50;;;;;;;5.45;3.13;;;;;;;28.07;45.84;98199.88;5009986;28;20186;-63
2023/05/25 10:58:18;;;;;;;3.55;3.13;;;;;;;28.18;46.68;98185.00;5009886;28;20233;-63
2023/05/25 11:01:16;;;;;;;3.35;3.05;;;;;;;27.90;45.11;98174.03;5009823;28;20202;-63
2023/05/25 11:04:16;;;;;;;4.28;3.30;;;;;;;27.93;45.63;98184.25;5012571;28;20821;-63
2023/05/25 11:06:45;;;;;;;5.18;2.90;;;;;;;28.17;45.60;98192.16;5029699;28;20190;-63
2023/05/25 11:09:26;;;;;;;4.28;2.67;;;;;;;28.08;45.22;98193.50;5029648;28;20182;-63
2023/05/25 11:11:54;;;;;;;3.50;3.17;;;;;;;27.96;45.24;98183.81;5029630;28;20173;-63
2023/05/25 11:14:28;;;;;;;4.57;2.63;;;;;;;27.65;46.61;98184.66;5029563;28;20273;-63
2023/05/25 11:17:10;;;;;;;4.43;2.92;;;;;;;27.36;46.39;98192.50;5029553;28;20189;-63
2023/05/25 11:19:54;;;;;;;3.50;3.03;;;;;;;26.82;47.21;98150.53;5029539;28;20182;-63
2023/05/25 11:22:21;;;;;;;3.97;3.08;;;;;;;27.00;47.38;98181.69;5029410;28;20644;-63
2023/05/25 11:24:51;;;;;;;3.33;3.03;;;;;;;26.43;48.50;98118.03;5009556;28;20227;-63
2023/05/25 11:27:29;;;;;;;3.20;2.85;;;;;;;26.45;49.26;98134.56;5039954;28;20280;-63
2023/05/25 11:29:56;;;;;;;5.32;2.80;;;;;;;26.29;49.31;98108.53;5049353;28;20205;-63
2023/05/25 11:32:22;;;;;;;6.55;3.00;;;;;;;26.12;48.67;98131.25;5049304;28;20212;-63